sensor_id;sensor_type;location;lat;lon;timestamp;P1;durP1;ratioP1;P2;durP2;ratioP2
40609;SDS011;26316;55.976;37.140;2023-11-19T00:01:40;60.65;;;38.25;;
40609;SDS011;26316;55.976;37.140;2023-11-19T00:04:06;61.25;;;39.65;;
40609;SDS011;26316;55.976;37.140;2023-11-19T00:06:32;62.80;;;39.50;;
40609;SDS011;26316;55.976;37.140;2023-11-19T00:08:57;64.55;;;41.30;;
40609;SDS011;26316;55.976;37.140;2023-11-19T00:11:23;68.68;;;41.08;;
40609;SDS011;26316;55.976;37.140;2023-11-19T00:13:49;61.97;;;41.28;;
40609;SDS011;26316;55.976;37.140;2023-11-19T00:16:15;63.95;;;40.75;;
40609;SDS011;26316;55.976;37.140;2023-11-19T00:18:41;59.05;;;37.95;;
40609;SDS011;26316;55.976;37.140;2023-11-19T00:21:07;59.72;;;36.83;;
40609;SDS011;26316;55.976;37.140;2023-11-19T00:23:36;59.00;;;37.78;;
40609;SDS011;26316;55.976;37.140;2023-11-19T00:26:02;56.70;;;38.13;;
40609;SDS011;26316;55.976;37.140;2023-11-19T00:28:32;58.08;;;36.85;;
40609;SDS011;26316;55.976;37.140;2023-11-19T00:30:58;53.15;;;34.88;;
40609;SDS011;26316;55.976;37.140;2023-11-19T00:33:25;51.28;;;34.83;;
40609;SDS011;26316;55.976;37.140;2023-11-19T00:35:50;60.22;;;35.90;;
40609;SDS011;26316;55.976;37.140;2023-11-19T00:38:16;55.17;;;34.90;;
40609;SDS011;26316;55.976;37.140;2023-11-19T00:40:41;54.63;;;35.03;;
40609;SDS011;26316;55.976;37.140;2023-11-19T00:43:07;50.80;;;34.53;;
40609;SDS011;26316;55.976;37.140;2023-11-19T00:45:33;52.97;;;35.30;;
40609;SDS011;26316;55.976;37.140;2023-11-19T00:47:59;52.45;;;33.08;;
40609;SDS011;26316;55.976;37.140;2023-11-19T00:50:25;51.58;;;34.30;;
40609;SDS011;26316;55.976;37.140;2023-11-19T00:52:51;49.30;;;32.90;;
40609;SDS011;26316;55.976;37.140;2023-11-19T00:55:17;50.42;;;33.45;;
40609;SDS011;26316;55.976;37.140;2023-11-19T00:57:44;48.20;;;33.08;;
40609;SDS011;26316;55.976;37.140;2023-11-19T01:00:10;55.17;;;33.97;;
40609;SDS011;26316;55.976;37.140;2023-11-19T01:02:46;49.13;;;32.72;;
40609;SDS011;26316;55.976;37.140;2023-11-19T01:05:13;52.60;;;32.70;;
40609;SDS011;26316;55.976;37.140;2023-11-19T01:07:41;49.58;;;32.75;;
40609;SDS011;26316;55.976;37.140;2023-11-19T01:10:07;52.80;;;32.90;;
40609;SDS011;26316;55.976;37.140;2023-11-19T01:12:33;47.17;;;32.80;;
40609;SDS011;26316;55.976;37.140;2023-11-19T01:14:59;45.38;;;31.35;;
40609;SDS011;26316;55.976;37.140;2023-11-19T01:19:56;51.38;;;34.17;;
40609;SDS011;26316;55.976;37.140;2023-11-19T01:22:22;48.70;;;33.25;;
40609;SDS011;26316;55.976;37.140;2023-11-19T01:24:48;49.15;;;31.25;;
40609;SDS011;26316;55.976;37.140;2023-11-19T01:27:14;55.40;;;38.38;;
40609;SDS011;26316;55.976;37.140;2023-11-19T01:29:39;55.00;;;37.63;;
40609;SDS011;26316;55.976;37.140;2023-11-19T01:32:06;55.45;;;37.83;;
40609;SDS011;26316;55.976;37.140;2023-11-19T01:34:31;54.80;;;34.25;;
40609;SDS011;26316;55.976;37.140;2023-11-19T01:36:57;48.45;;;34.15;;
40609;SDS011;26316;55.976;37.140;2023-11-19T01:39:23;48.33;;;32.33;;
40609;SDS011;26316;55.976;37.140;2023-11-19T01:41:49;43.50;;;30.85;;
40609;SDS011;26316;55.976;37.140;2023-11-19T01:44:14;46.95;;;31.33;;
40609;SDS011;26316;55.976;37.140;2023-11-19T01:46:40;54.72;;;32.10;;
40609;SDS011;26316;55.976;37.140;2023-11-19T01:49:07;50.22;;;31.20;;
40609;SDS011;26316;55.976;37.140;2023-11-19T01:51:34;45.35;;;30.40;;
40609;SDS011;26316;55.976;37.140;2023-11-19T01:54:00;51.10;;;31.50;;
40609;SDS011;26316;55.976;37.140;2023-11-19T01:56:27;47.35;;;31.05;;
40609;SDS011;26316;55.976;37.140;2023-11-19T01:58:53;46.40;;;30.30;;
40609;SDS011;26316;55.976;37.140;2023-11-19T02:01:20;46.90;;;30.00;;
40609;SDS011;26316;55.976;37.140;2023-11-19T02:03:46;47.20;;;28.95;;
40609;SDS011;26316;55.976;37.140;2023-11-19T02:06:12;50.63;;;31.17;;
40609;SDS011;26316;55.976;37.140;2023-11-19T02:08:38;46.33;;;32.35;;
40609;SDS011;26316;55.976;37.140;2023-11-19T02:11:05;44.25;;;30.60;;
40609;SDS011;26316;55.976;37.140;2023-11-19T02:13:32;41.85;;;29.88;;
40609;SDS011;26316;55.976;37.140;2023-11-19T02:15:58;45.10;;;31.55;;
40609;SDS011;26316;55.976;37.140;2023-11-19T02:18:25;50.63;;;30.98;;
40609;SDS011;26316;55.976;37.140;2023-11-19T02:20:58;43.40;;;30.17;;
40609;SDS011;26316;55.976;37.140;2023-11-19T02:28:23;58.20;;;33.50;;
40609;SDS011;26316;55.976;37.140;2023-11-19T02:30:49;52.20;;;33.33;;
40609;SDS011;26316;55.976;37.140;2023-11-19T02:33:15;54.17;;;33.65;;
40609;SDS011;26316;55.976;37.140;2023-11-19T02:35:41;48.80;;;31.25;;
40609;SDS011;26316;55.976;37.140;2023-11-19T02:38:06;47.97;;;31.85;;
40609;SDS011;26316;55.976;37.140;2023-11-19T02:40:32;53.92;;;31.83;;
40609;SDS011;26316;55.976;37.140;2023-11-19T02:42:58;54.80;;;34.10;;
40609;SDS011;26316;55.976;37.140;2023-11-19T02:45:25;53.15;;;32.75;;
40609;SDS011;26316;55.976;37.140;2023-11-19T02:47:51;56.60;;;33.33;;
40609;SDS011;26316;55.976;37.140;2023-11-19T02:50:18;55.53;;;33.55;;
40609;SDS011;26316;55.976;37.140;2023-11-19T02:52:50;53.25;;;33.78;;
40609;SDS011;26316;55.976;37.140;2023-11-19T02:55:17;51.22;;;32.78;;
40609;SDS011;26316;55.976;37.140;2023-11-19T02:57:43;53.33;;;32.78;;
40609;SDS011;26316;55.976;37.140;2023-11-19T03:00:16;53.42;;;33.85;;
40609;SDS011;26316;55.976;37.140;2023-11-19T03:02:49;40.65;;;26.33;;
40609;SDS011;26316;55.976;37.140;2023-11-19T03:05:24;49.03;;;31.33;;
40609;SDS011;26316;55.976;37.140;2023-11-19T03:07:51;46.80;;;29.48;;
40609;SDS011;26316;55.976;37.140;2023-11-19T03:10:17;48.35;;;31.13;;
40609;SDS011;26316;55.976;37.140;2023-11-19T03:12:44;51.08;;;32.17;;
40609;SDS011;26316;55.976;37.140;2023-11-19T03:15:10;53.95;;;33.17;;
40609;SDS011;26316;55.976;37.140;2023-11-19T03:17:40;54.53;;;32.67;;
40609;SDS011;26316;55.976;37.140;2023-11-19T03:20:07;53.47;;;30.90;;
40609;SDS011;26316;55.976;37.140;2023-11-19T03:22:40;53.22;;;31.63;;
40609;SDS011;26316;55.976;37.140;2023-11-19T03:25:09;51.97;;;31.40;;
40609;SDS011;26316;55.976;37.140;2023-11-19T03:27:36;52.75;;;33.22;;
40609;SDS011;26316;55.976;37.140;2023-11-19T03:30:02;50.30;;;31.42;;
40609;SDS011;26316;55.976;37.140;2023-11-19T03:32:31;45.00;;;29.77;;
40609;SDS011;26316;55.976;37.140;2023-11-19T03:34:57;47.67;;;30.77;;
40609;SDS011;26316;55.976;37.140;2023-11-19T03:37:23;50.00;;;27.73;;
40609;SDS011;26316;55.976;37.140;2023-11-19T03:39:49;43.40;;;27.70;;
40609;SDS011;26316;55.976;37.140;2023-11-19T03:42:14;37.10;;;24.63;;
40609;SDS011;26316;55.976;37.140;2023-11-19T03:44:40;40.88;;;25.67;;
40609;SDS011;26316;55.976;37.140;2023-11-19T03:47:06;43.38;;;26.98;;
40609;SDS011;26316;55.976;37.140;2023-11-19T03:49:32;48.78;;;27.20;;
40609;SDS011;26316;55.976;37.140;2023-11-19T03:51:57;41.65;;;25.63;;
40609;SDS011;26316;55.976;37.140;2023-11-19T03:54:23;40.55;;;25.83;;
40609;SDS011;26316;55.976;37.140;2023-11-19T03:56:49;41.33;;;27.23;;
40609;SDS011;26316;55.976;37.140;2023-11-19T03:59:15;39.88;;;26.27;;
40609;SDS011;26316;55.976;37.140;2023-11-19T04:01:41;38.30;;;25.50;;
40609;SDS011;26316;55.976;37.140;2023-11-19T04:04:06;47.60;;;28.08;;
40609;SDS011;26316;55.976;37.140;2023-11-19T04:06:32;41.13;;;27.25;;
40609;SDS011;26316;55.976;37.140;2023-11-19T04:08:58;42.67;;;28.38;;
40609;SDS011;26316;55.976;37.140;2023-11-19T04:11:23;38.47;;;27.30;;
40609;SDS011;26316;55.976;37.140;2023-11-19T04:13:49;45.70;;;28.98;;
40609;SDS011;26316;55.976;37.140;2023-11-19T04:16:15;44.83;;;28.38;;
40609;SDS011;26316;55.976;37.140;2023-11-19T04:18:40;46.53;;;29.27;;
40609;SDS011;26316;55.976;37.140;2023-11-19T04:21:07;47.17;;;28.92;;
40609;SDS011;26316;55.976;37.140;2023-11-19T04:23:32;45.80;;;29.17;;
40609;SDS011;26316;55.976;37.140;2023-11-19T04:26:01;40.30;;;28.17;;
40609;SDS011;26316;55.976;37.140;2023-11-19T04:28:29;40.97;;;27.25;;
40609;SDS011;26316;55.976;37.140;2023-11-19T04:30:54;40.30;;;24.85;;
40609;SDS011;26316;55.976;37.140;2023-11-19T04:33:20;45.85;;;24.42;;
40609;SDS011;26316;55.976;37.140;2023-11-19T04:35:46;28.30;;;18.70;;
40609;SDS011;26316;55.976;37.140;2023-11-19T04:38:11;37.22;;;23.33;;
40609;SDS011;26316;55.976;37.140;2023-11-19T04:40:37;35.72;;;24.60;;
40609;SDS011;26316;55.976;37.140;2023-11-19T04:43:03;39.05;;;24.65;;
40609;SDS011;26316;55.976;37.140;2023-11-19T04:45:28;43.40;;;25.25;;
40609;SDS011;26316;55.976;37.140;2023-11-19T04:47:54;34.88;;;21.90;;
40609;SDS011;26316;55.976;37.140;2023-11-19T04:50:20;38.92;;;23.38;;
40609;SDS011;26316;55.976;37.140;2023-11-19T04:52:45;33.63;;;22.67;;
40609;SDS011;26316;55.976;37.140;2023-11-19T04:55:12;27.58;;;18.23;;
40609;SDS011;26316;55.976;37.140;2023-11-19T04:57:39;30.77;;;20.52;;
40609;SDS011;26316;55.976;37.140;2023-11-19T05:00:05;28.88;;;19.27;;
40609;SDS011;26316;55.976;37.140;2023-11-19T05:02:34;31.38;;;20.15;;
40609;SDS011;26316;55.976;37.140;2023-11-19T05:05:00;40.30;;;21.77;;
40609;SDS011;26316;55.976;37.140;2023-11-19T05:07:27;27.50;;;17.83;;
40609;SDS011;26316;55.976;37.140;2023-11-19T05:09:52;29.27;;;18.63;;
40609;SDS011;26316;55.976;37.140;2023-11-19T05:12:18;33.83;;;20.88;;
40609;SDS011;26316;55.976;37.140;2023-11-19T05:14:44;23.73;;;14.45;;
40609;SDS011;26316;55.976;37.140;2023-11-19T05:17:14;33.75;;;20.00;;
40609;SDS011;26316;55.976;37.140;2023-11-19T05:19:41;30.05;;;19.92;;
40609;SDS011;26316;55.976;37.140;2023-11-19T05:22:06;30.10;;;20.70;;
40609;SDS011;26316;55.976;37.140;2023-11-19T05:24:32;33.65;;;21.30;;
40609;SDS011;26316;55.976;37.140;2023-11-19T05:26:58;30.13;;;20.27;;
40609;SDS011;26316;55.976;37.140;2023-11-19T05:29:24;23.60;;;16.90;;
40609;SDS011;26316;55.976;37.140;2023-11-19T05:31:50;25.58;;;16.10;;
40609;SDS011;26316;55.976;37.140;2023-11-19T05:34:15;27.27;;;17.38;;
40609;SDS011;26316;55.976;37.140;2023-11-19T05:36:41;23.55;;;16.05;;
40609;SDS011;26316;55.976;37.140;2023-11-19T05:39:07;30.40;;;18.70;;
40609;SDS011;26316;55.976;37.140;2023-11-19T05:41:32;28.02;;;19.05;;
40609;SDS011;26316;55.976;37.140;2023-11-19T05:43:58;28.75;;;19.23;;
40609;SDS011;26316;55.976;37.140;2023-11-19T05:46:24;24.55;;;18.38;;
40609;SDS011;26316;55.976;37.140;2023-11-19T05:48:52;30.20;;;18.85;;
40609;SDS011;26316;55.976;37.140;2023-11-19T05:51:18;20.10;;;13.45;;
40609;SDS011;26316;55.976;37.140;2023-11-19T05:53:44;27.42;;;17.40;;
40609;SDS011;26316;55.976;37.140;2023-11-19T05:56:11;29.17;;;17.25;;
40609;SDS011;26316;55.976;37.140;2023-11-19T05:58:36;29.50;;;18.80;;
40609;SDS011;26316;55.976;37.140;2023-11-19T06:01:02;26.95;;;17.20;;
40609;SDS011;26316;55.976;37.140;2023-11-19T06:03:32;24.58;;;15.93;;
40609;SDS011;26316;55.976;37.140;2023-11-19T06:05:58;20.60;;;14.85;;
40609;SDS011;26316;55.976;37.140;2023-11-19T06:08:24;22.83;;;13.25;;
40609;SDS011;26316;55.976;37.140;2023-11-19T06:10:52;18.17;;;12.65;;
40609;SDS011;26316;55.976;37.140;2023-11-19T06:13:18;23.08;;;13.65;;
40609;SDS011;26316;55.976;37.140;2023-11-19T06:15:43;21.80;;;14.50;;
40609;SDS011;26316;55.976;37.140;2023-11-19T06:18:09;23.40;;;15.18;;
40609;SDS011;26316;55.976;37.140;2023-11-19T06:20:37;26.30;;;16.17;;
40609;SDS011;26316;55.976;37.140;2023-11-19T06:23:02;26.20;;;16.60;;
40609;SDS011;26316;55.976;37.140;2023-11-19T06:25:28;29.23;;;17.88;;
40609;SDS011;26316;55.976;37.140;2023-11-19T06:27:54;25.77;;;17.70;;
40609;SDS011;26316;55.976;37.140;2023-11-19T06:30:20;25.85;;;16.92;;
40609;SDS011;26316;55.976;37.140;2023-11-19T06:32:46;24.55;;;17.67;;
40609;SDS011;26316;55.976;37.140;2023-11-19T06:35:12;28.30;;;18.67;;
40609;SDS011;26316;55.976;37.140;2023-11-19T06:37:39;27.20;;;17.35;;
40609;SDS011;26316;55.976;37.140;2023-11-19T06:40:05;27.20;;;17.13;;
40609;SDS011;26316;55.976;37.140;2023-11-19T06:42:32;27.98;;;17.45;;
40609;SDS011;26316;55.976;37.140;2023-11-19T06:44:58;23.95;;;17.70;;
40609;SDS011;26316;55.976;37.140;2023-11-19T06:47:27;27.75;;;18.25;;
40609;SDS011;26316;55.976;37.140;2023-11-19T06:49:53;28.63;;;17.25;;
40609;SDS011;26316;55.976;37.140;2023-11-19T06:52:20;23.85;;;17.38;;
40609;SDS011;26316;55.976;37.140;2023-11-19T06:54:45;27.40;;;18.58;;
40609;SDS011;26316;55.976;37.140;2023-11-19T06:57:12;25.77;;;18.10;;
40609;SDS011;26316;55.976;37.140;2023-11-19T06:59:38;25.45;;;17.83;;
40609;SDS011;26316;55.976;37.140;2023-11-19T07:02:04;25.90;;;17.90;;
40609;SDS011;26316;55.976;37.140;2023-11-19T07:04:30;27.15;;;18.08;;
40609;SDS011;26316;55.976;37.140;2023-11-19T07:06:57;26.25;;;18.35;;
40609;SDS011;26316;55.976;37.140;2023-11-19T07:09:22;33.75;;;18.60;;
40609;SDS011;26316;55.976;37.140;2023-11-19T07:11:48;26.08;;;18.90;;
40609;SDS011;26316;55.976;37.140;2023-11-19T07:14:15;29.20;;;19.42;;
40609;SDS011;26316;55.976;37.140;2023-11-19T07:16:41;28.00;;;20.65;;
40609;SDS011;26316;55.976;37.140;2023-11-19T07:19:08;29.35;;;20.75;;
40609;SDS011;26316;55.976;37.140;2023-11-19T07:21:34;30.55;;;20.63;;
40609;SDS011;26316;55.976;37.140;2023-11-19T07:24:04;31.15;;;20.05;;
40609;SDS011;26316;55.976;37.140;2023-11-19T07:26:30;30.05;;;20.80;;
40609;SDS011;26316;55.976;37.140;2023-11-19T07:28:56;31.75;;;21.40;;
40609;SDS011;26316;55.976;37.140;2023-11-19T07:31:23;30.73;;;20.88;;
40609;SDS011;26316;55.976;37.140;2023-11-19T07:33:49;30.85;;;20.30;;
40609;SDS011;26316;55.976;37.140;2023-11-19T07:36:15;30.77;;;19.80;;
40609;SDS011;26316;55.976;37.140;2023-11-19T07:38:41;28.52;;;19.58;;
40609;SDS011;26316;55.976;37.140;2023-11-19T07:41:07;30.33;;;20.42;;
40609;SDS011;26316;55.976;37.140;2023-11-19T07:43:38;31.00;;;20.00;;
40609;SDS011;26316;55.976;37.140;2023-11-19T07:46:05;24.70;;;18.52;;
40609;SDS011;26316;55.976;37.140;2023-11-19T07:48:38;26.20;;;18.63;;
40609;SDS011;26316;55.976;37.140;2023-11-19T07:51:05;24.98;;;18.30;;
40609;SDS011;26316;55.976;37.140;2023-11-19T07:53:31;25.35;;;17.75;;
40609;SDS011;26316;55.976;37.140;2023-11-19T07:55:58;31.80;;;18.95;;
40609;SDS011;26316;55.976;37.140;2023-11-19T07:58:25;23.25;;;16.60;;
40609;SDS011;26316;55.976;37.140;2023-11-19T08:00:51;24.65;;;16.88;;
40609;SDS011;26316;55.976;37.140;2023-11-19T08:03:17;26.00;;;16.73;;
40609;SDS011;26316;55.976;37.140;2023-11-19T08:05:44;25.95;;;17.42;;
40609;SDS011;26316;55.976;37.140;2023-11-19T08:08:11;23.80;;;16.40;;
40609;SDS011;26316;55.976;37.140;2023-11-19T08:10:37;25.23;;;17.52;;
40609;SDS011;26316;55.976;37.140;2023-11-19T08:13:03;22.52;;;15.43;;
40609;SDS011;26316;55.976;37.140;2023-11-19T08:15:29;25.58;;;15.38;;
40609;SDS011;26316;55.976;37.140;2023-11-19T08:17:55;23.33;;;16.05;;
40609;SDS011;26316;55.976;37.140;2023-11-19T08:20:21;24.63;;;16.73;;
40609;SDS011;26316;55.976;37.140;2023-11-19T08:22:50;24.83;;;17.52;;
40609;SDS011;26316;55.976;37.140;2023-11-19T08:25:18;22.25;;;16.58;;
40609;SDS011;26316;55.976;37.140;2023-11-19T08:27:44;31.88;;;16.33;;
40609;SDS011;26316;55.976;37.140;2023-11-19T08:30:09;19.20;;;15.70;;
40609;SDS011;26316;55.976;37.140;2023-11-19T08:32:36;25.42;;;16.92;;
40609;SDS011;26316;55.976;37.140;2023-11-19T08:35:02;23.75;;;17.27;;
40609;SDS011;26316;55.976;37.140;2023-11-19T08:37:28;26.25;;;17.90;;
40609;SDS011;26316;55.976;37.140;2023-11-19T08:39:54;24.83;;;17.38;;
40609;SDS011;26316;55.976;37.140;2023-11-19T08:42:20;26.00;;;19.33;;
40609;SDS011;26316;55.976;37.140;2023-11-19T08:44:50;22.77;;;16.90;;
40609;SDS011;26316;55.976;37.140;2023-11-19T08:47:19;20.27;;;15.45;;
40609;SDS011;26316;55.976;37.140;2023-11-19T08:49:45;21.15;;;15.63;;
40609;SDS011;26316;55.976;37.140;2023-11-19T08:52:11;22.20;;;14.95;;
40609;SDS011;26316;55.976;37.140;2023-11-19T08:54:37;19.95;;;14.75;;
40609;SDS011;26316;55.976;37.140;2023-11-19T08:57:03;20.30;;;13.68;;
40609;SDS011;26316;55.976;37.140;2023-11-19T08:59:29;20.30;;;13.98;;
40609;SDS011;26316;55.976;37.140;2023-11-19T09:01:55;18.77;;;12.80;;
40609;SDS011;26316;55.976;37.140;2023-11-19T09:04:21;19.25;;;12.85;;
40609;SDS011;26316;55.976;37.140;2023-11-19T09:06:49;16.58;;;12.55;;
40609;SDS011;26316;55.976;37.140;2023-11-19T09:09:16;17.42;;;12.45;;
40609;SDS011;26316;55.976;37.140;2023-11-19T09:11:42;15.40;;;12.23;;
40609;SDS011;26316;55.976;37.140;2023-11-19T09:14:07;16.10;;;11.68;;
40609;SDS011;26316;55.976;37.140;2023-11-19T09:16:33;15.95;;;11.77;;
40609;SDS011;26316;55.976;37.140;2023-11-19T09:18:59;17.85;;;11.70;;
40609;SDS011;26316;55.976;37.140;2023-11-19T09:21:25;18.15;;;12.75;;
40609;SDS011;26316;55.976;37.140;2023-11-19T09:23:51;16.15;;;11.35;;
40609;SDS011;26316;55.976;37.140;2023-11-19T09:26:18;17.13;;;12.85;;
40609;SDS011;26316;55.976;37.140;2023-11-19T09:28:44;16.75;;;12.98;;
40609;SDS011;26316;55.976;37.140;2023-11-19T09:31:13;19.83;;;11.95;;
40609;SDS011;26316;55.976;37.140;2023-11-19T09:33:42;16.35;;;11.90;;
40609;SDS011;26316;55.976;37.140;2023-11-19T09:36:08;17.00;;;11.60;;
40609;SDS011;26316;55.976;37.140;2023-11-19T09:38:36;15.88;;;11.73;;
40609;SDS011;26316;55.976;37.140;2023-11-19T09:41:05;13.60;;;11.20;;
40609;SDS011;26316;55.976;37.140;2023-11-19T09:43:35;15.60;;;11.00;;
40609;SDS011;26316;55.976;37.140;2023-11-19T09:46:04;14.73;;;10.38;;
40609;SDS011;26316;55.976;37.140;2023-11-19T09:48:35;15.93;;;11.57;;
40609;SDS011;26316;55.976;37.140;2023-11-19T09:51:06;15.88;;;10.63;;
40609;SDS011;26316;55.976;37.140;2023-11-19T09:53:32;14.88;;;10.02;;
40609;SDS011;26316;55.976;37.140;2023-11-19T09:55:59;15.65;;;9.68;;
40609;SDS011;26316;55.976;37.140;2023-11-19T09:58:26;14.32;;;10.35;;
40609;SDS011;26316;55.976;37.140;2023-11-19T10:00:51;16.33;;;10.75;;
40609;SDS011;26316;55.976;37.140;2023-11-19T10:03:17;15.35;;;10.77;;
40609;SDS011;26316;55.976;37.140;2023-11-19T10:05:43;17.33;;;10.45;;
40609;SDS011;26316;55.976;37.140;2023-11-19T10:08:09;15.98;;;11.00;;
40609;SDS011;26316;55.976;37.140;2023-11-19T10:10:36;13.27;;;9.80;;
40609;SDS011;26316;55.976;37.140;2023-11-19T10:13:02;13.20;;;9.70;;
40609;SDS011;26316;55.976;37.140;2023-11-19T10:15:28;13.77;;;9.88;;
40609;SDS011;26316;55.976;37.140;2023-11-19T10:18:01;8.15;;;7.18;;
40609;SDS011;26316;55.976;37.140;2023-11-19T10:20:26;10.23;;;7.82;;
40609;SDS011;26316;55.976;37.140;2023-11-19T10:22:53;10.20;;;7.60;;
40609;SDS011;26316;55.976;37.140;2023-11-19T10:25:24;10.52;;;7.60;;
40609;SDS011;26316;55.976;37.140;2023-11-19T10:27:50;12.35;;;8.88;;
40609;SDS011;26316;55.976;37.140;2023-11-19T10:30:17;15.55;;;8.98;;
40609;SDS011;26316;55.976;37.140;2023-11-19T10:35:29;11.35;;;8.80;;
40609;SDS011;26316;55.976;37.140;2023-11-19T10:37:55;12.70;;;8.77;;
40609;SDS011;26316;55.976;37.140;2023-11-19T10:40:22;12.18;;;8.63;;
40609;SDS011;26316;55.976;37.140;2023-11-19T10:42:48;10.40;;;8.43;;
40609;SDS011;26316;55.976;37.140;2023-11-19T10:45:32;13.48;;;8.52;;
40609;SDS011;26316;55.976;37.140;2023-11-19T10:47:59;14.95;;;8.75;;
40609;SDS011;26316;55.976;37.140;2023-11-19T10:50:25;11.30;;;7.93;;
40609;SDS011;26316;55.976;37.140;2023-11-19T10:52:56;11.52;;;8.85;;
40609;SDS011;26316;55.976;37.140;2023-11-19T10:55:28;14.85;;;7.80;;
40609;SDS011;26316;55.976;37.140;2023-11-19T10:58:01;27.02;;;9.10;;
40609;SDS011;26316;55.976;37.140;2023-11-19T11:00:29;14.60;;;8.80;;
40609;SDS011;26316;55.976;37.140;2023-11-19T11:02:59;11.02;;;8.68;;
40609;SDS011;26316;55.976;37.140;2023-11-19T11:05:26;18.35;;;10.30;;
40609;SDS011;26316;55.976;37.140;2023-11-19T11:07:52;19.80;;;10.82;;
40609;SDS011;26316;55.976;37.140;2023-11-19T11:10:20;19.15;;;10.13;;
40609;SDS011;26316;55.976;37.140;2023-11-19T11:12:47;15.10;;;9.45;;
40609;SDS011;26316;55.976;37.140;2023-11-19T11:15:15;11.60;;;8.63;;
40609;SDS011;26316;55.976;37.140;2023-11-19T11:17:42;14.15;;;8.40;;
40609;SDS011;26316;55.976;37.140;2023-11-19T11:20:09;15.10;;;9.68;;
40609;SDS011;26316;55.976;37.140;2023-11-19T11:22:40;16.67;;;9.65;;
40609;SDS011;26316;55.976;37.140;2023-11-19T11:25:19;10.30;;;9.00;;
40609;SDS011;26316;55.976;37.140;2023-11-19T11:27:57;14.68;;;9.35;;
40609;SDS011;26316;55.976;37.140;2023-11-19T11:33:11;12.05;;;9.45;;
40609;SDS011;26316;55.976;37.140;2023-11-19T11:35:53;16.98;;;9.65;;
40609;SDS011;26316;55.976;37.140;2023-11-19T11:38:27;14.07;;;9.20;;
40609;SDS011;26316;55.976;37.140;2023-11-19T11:43:48;14.15;;;10.32;;
40609;SDS011;26316;55.976;37.140;2023-11-19T11:49:03;15.98;;;10.27;;
40609;SDS011;26316;55.976;37.140;2023-11-19T11:54:08;16.80;;;11.00;;
40609;SDS011;26316;55.976;37.140;2023-11-19T11:56:38;15.52;;;10.80;;
40609;SDS011;26316;55.976;37.140;2023-11-19T11:59:07;15.10;;;9.57;;
40609;SDS011;26316;55.976;37.140;2023-11-19T12:01:34;14.63;;;10.52;;
40609;SDS011;26316;55.976;37.140;2023-11-19T12:04:00;16.08;;;10.40;;
40609;SDS011;26316;55.976;37.140;2023-11-19T12:06:27;15.48;;;10.32;;
40609;SDS011;26316;55.976;37.140;2023-11-19T12:08:52;16.85;;;11.50;;
40609;SDS011;26316;55.976;37.140;2023-11-19T12:11:19;16.52;;;10.55;;
40609;SDS011;26316;55.976;37.140;2023-11-19T12:13:47;16.63;;;10.55;;
40609;SDS011;26316;55.976;37.140;2023-11-19T12:16:20;17.58;;;10.48;;
40609;SDS011;26316;55.976;37.140;2023-11-19T12:18:46;27.40;;;10.70;;
40609;SDS011;26316;55.976;37.140;2023-11-19T12:21:26;13.30;;;10.00;;
40609;SDS011;26316;55.976;37.140;2023-11-19T12:23:57;15.52;;;11.10;;
40609;SDS011;26316;55.976;37.140;2023-11-19T12:26:36;20.33;;;11.45;;
40609;SDS011;26316;55.976;37.140;2023-11-19T12:29:02;20.70;;;11.50;;
40609;SDS011;26316;55.976;37.140;2023-11-19T12:31:29;16.15;;;11.32;;
40609;SDS011;26316;55.976;37.140;2023-11-19T12:33:56;20.50;;;11.75;;
40609;SDS011;26316;55.976;37.140;2023-11-19T12:36:21;20.77;;;12.32;;
40609;SDS011;26316;55.976;37.140;2023-11-19T12:38:48;15.77;;;11.90;;
40609;SDS011;26316;55.976;37.140;2023-11-19T12:41:17;16.20;;;11.98;;
40609;SDS011;26316;55.976;37.140;2023-11-19T12:43:45;19.55;;;11.65;;
40609;SDS011;26316;55.976;37.140;2023-11-19T12:46:21;20.35;;;12.23;;
40609;SDS011;26316;55.976;37.140;2023-11-19T12:48:48;17.80;;;12.25;;
40609;SDS011;26316;55.976;37.140;2023-11-19T12:51:14;16.60;;;12.38;;
40609;SDS011;26316;55.976;37.140;2023-11-19T12:53:52;18.05;;;14.32;;
40609;SDS011;26316;55.976;37.140;2023-11-19T12:56:20;20.77;;;13.00;;
40609;SDS011;26316;55.976;37.140;2023-11-19T12:58:47;21.88;;;13.60;;
40609;SDS011;26316;55.976;37.140;2023-11-19T13:01:17;24.33;;;13.88;;
40609;SDS011;26316;55.976;37.140;2023-11-19T13:03:47;18.08;;;13.25;;
40609;SDS011;26316;55.976;37.140;2023-11-19T13:06:14;18.80;;;13.57;;
40609;SDS011;26316;55.976;37.140;2023-11-19T13:08:41;23.20;;;13.68;;
40609;SDS011;26316;55.976;37.140;2023-11-19T13:11:35;22.23;;;14.88;;
40609;SDS011;26316;55.976;37.140;2023-11-19T13:14:02;24.08;;;15.73;;
40609;SDS011;26316;55.976;37.140;2023-11-19T13:16:29;20.55;;;16.02;;
40609;SDS011;26316;55.976;37.140;2023-11-19T13:18:56;24.25;;;15.63;;
40609;SDS011;26316;55.976;37.140;2023-11-19T13:21:22;29.42;;;17.88;;
40609;SDS011;26316;55.976;37.140;2023-11-19T13:23:48;24.70;;;17.73;;
40609;SDS011;26316;55.976;37.140;2023-11-19T13:26:15;24.05;;;17.45;;
40609;SDS011;26316;55.976;37.140;2023-11-19T13:28:41;30.42;;;17.85;;
40609;SDS011;26316;55.976;37.140;2023-11-19T13:31:06;27.20;;;17.40;;
40609;SDS011;26316;55.976;37.140;2023-11-19T13:33:33;30.30;;;17.05;;
40609;SDS011;26316;55.976;37.140;2023-11-19T13:35:59;27.30;;;18.25;;
40609;SDS011;26316;55.976;37.140;2023-11-19T13:38:31;25.85;;;16.40;;
40609;SDS011;26316;55.976;37.140;2023-11-19T13:40:58;27.90;;;17.17;;
40609;SDS011;26316;55.976;37.140;2023-11-19T13:43:25;21.63;;;15.68;;
40609;SDS011;26316;55.976;37.140;2023-11-19T13:45:51;28.92;;;16.48;;
40609;SDS011;26316;55.976;37.140;2023-11-19T13:48:18;23.42;;;16.92;;
40609;SDS011;26316;55.976;37.140;2023-11-19T13:50:44;25.40;;;17.25;;
40609;SDS011;26316;55.976;37.140;2023-11-19T13:53:13;24.13;;;16.80;;
40609;SDS011;26316;55.976;37.140;2023-11-19T13:55:39;24.35;;;16.50;;
40609;SDS011;26316;55.976;37.140;2023-11-19T13:58:04;25.25;;;16.38;;
40609;SDS011;26316;55.976;37.140;2023-11-19T14:00:30;24.42;;;17.75;;
40609;SDS011;26316;55.976;37.140;2023-11-19T14:02:56;25.95;;;16.55;;
40609;SDS011;26316;55.976;37.140;2023-11-19T14:05:21;27.35;;;15.98;;
40609;SDS011;26316;55.976;37.140;2023-11-19T14:07:48;24.20;;;17.05;;
40609;SDS011;26316;55.976;37.140;2023-11-19T14:10:14;21.52;;;16.73;;
40609;SDS011;26316;55.976;37.140;2023-11-19T14:12:40;22.48;;;16.75;;
40609;SDS011;26316;55.976;37.140;2023-11-19T14:15:09;24.40;;;16.20;;
40609;SDS011;26316;55.976;37.140;2023-11-19T14:17:37;23.23;;;18.37;;
40609;SDS011;26316;55.976;37.140;2023-11-19T14:20:03;25.95;;;18.30;;
40609;SDS011;26316;55.976;37.140;2023-11-19T14:22:39;33.40;;;24.40;;
40609;SDS011;26316;55.976;37.140;2023-11-19T14:25:05;40.83;;;27.67;;
40609;SDS011;26316;55.976;37.140;2023-11-19T14:27:35;41.78;;;30.13;;
40609;SDS011;26316;55.976;37.140;2023-11-19T14:30:04;38.55;;;26.95;;
40609;SDS011;26316;55.976;37.140;2023-11-19T14:32:31;35.78;;;24.33;;